sensor_id;sensor_type;location;lat;lon;timestamp;P1;durP1;ratioP1;P2;durP2;ratioP2
62030;SDS011;62035;52.094;5.112;2023-04-21T00:02:08;17.42;;;10.73;;
62030;SDS011;62035;52.094;5.112;2023-04-21T00:04:40;19.20;;;11.45;;
62030;SDS011;62035;52.094;5.112;2023-04-21T00:07:10;19.85;;;11.05;;
62030;SDS011;62035;52.094;5.112;2023-04-21T00:09:39;19.27;;;11.45;;
62030;SDS011;62035;52.094;5.112;2023-04-21T00:12:08;22.55;;;12.02;;
62030;SDS011;62035;52.094;5.112;2023-04-21T00:14:36;20.52;;;11.30;;
62030;SDS011;62035;52.094;5.112;2023-04-21T00:17:04;25.33;;;12.63;;
62030;SDS011;62035;52.094;5.112;2023-04-21T00:19:32;21.45;;;11.93;;
62030;SDS011;62035;52.094;5.112;2023-04-21T00:22:00;21.88;;;11.70;;
62030;SDS011;62035;52.094;5.112;2023-04-21T00:24:29;17.75;;;11.15;;
62030;SDS011;62035;52.094;5.112;2023-04-21T00:26:56;27.35;;;12.57;;
62030;SDS011;62035;52.094;5.112;2023-04-21T00:29:25;18.98;;;11.27;;
62030;SDS011;62035;52.094;5.112;2023-04-21T00:31:53;20.33;;;12.07;;
62030;SDS011;62035;52.094;5.112;2023-04-21T00:34:20;20.48;;;12.10;;
62030;SDS011;62035;52.094;5.112;2023-04-21T00:36:48;24.08;;;12.15;;
62030;SDS011;62035;52.094;5.112;2023-04-21T00:39:16;23.40;;;12.60;;
62030;SDS011;62035;52.094;5.112;2023-04-21T00:41:43;18.80;;;11.82;;
62030;SDS011;62035;52.094;5.112;2023-04-21T00:44:11;22.52;;;13.50;;
62030;SDS011;62035;52.094;5.112;2023-04-21T00:46:40;22.70;;;13.02;;
62030;SDS011;62035;52.094;5.112;2023-04-21T00:49:08;26.58;;;13.38;;
62030;SDS011;62035;52.094;5.112;2023-04-21T00:51:35;22.38;;;12.45;;
62030;SDS011;62035;52.094;5.112;2023-04-21T00:54:03;24.17;;;13.13;;
62030;SDS011;62035;52.094;5.112;2023-04-21T00:56:34;23.65;;;13.07;;
62030;SDS011;62035;52.094;5.112;2023-04-21T00:59:02;23.10;;;13.30;;
62030;SDS011;62035;52.094;5.112;2023-04-21T01:01:30;22.10;;;13.60;;
62030;SDS011;62035;52.094;5.112;2023-04-21T01:04:00;22.58;;;12.88;;
62030;SDS011;62035;52.094;5.112;2023-04-21T01:06:30;25.90;;;13.38;;
62030;SDS011;62035;52.094;5.112;2023-04-21T01:09:00;25.05;;;13.55;;
62030;SDS011;62035;52.094;5.112;2023-04-21T01:11:29;26.10;;;14.25;;
62030;SDS011;62035;52.094;5.112;2023-04-21T01:13:57;24.20;;;14.35;;
62030;SDS011;62035;52.094;5.112;2023-04-21T01:16:25;23.95;;;14.40;;
62030;SDS011;62035;52.094;5.112;2023-04-21T01:18:54;24.95;;;14.73;;
62030;SDS011;62035;52.094;5.112;2023-04-21T01:21:23;27.63;;;14.77;;
62030;SDS011;62035;52.094;5.112;2023-04-21T01:23:53;29.25;;;15.75;;
62030;SDS011;62035;52.094;5.112;2023-04-21T01:26:20;29.20;;;15.70;;
62030;SDS011;62035;52.094;5.112;2023-04-21T01:28:48;27.33;;;15.07;;
62030;SDS011;62035;52.094;5.112;2023-04-21T01:31:16;32.70;;;17.00;;
62030;SDS011;62035;52.094;5.112;2023-04-21T01:33:45;29.58;;;16.52;;
62030;SDS011;62035;52.094;5.112;2023-04-21T01:36:13;30.35;;;16.35;;
62030;SDS011;62035;52.094;5.112;2023-04-21T01:38:41;29.02;;;16.58;;
62030;SDS011;62035;52.094;5.112;2023-04-21T01:41:10;27.17;;;15.88;;
62030;SDS011;62035;52.094;5.112;2023-04-21T01:43:38;30.95;;;17.02;;
62030;SDS011;62035;52.094;5.112;2023-04-21T01:46:05;30.85;;;17.42;;
62030;SDS011;62035;52.094;5.112;2023-04-21T01:48:34;28.38;;;16.98;;
62030;SDS011;62035;52.094;5.112;2023-04-21T01:51:03;34.15;;;17.67;;
62030;SDS011;62035;52.094;5.112;2023-04-21T01:53:30;32.58;;;17.77;;
62030;SDS011;62035;52.094;5.112;2023-04-21T01:55:58;30.45;;;17.30;;
62030;SDS011;62035;52.094;5.112;2023-04-21T01:58:27;32.35;;;17.10;;
62030;SDS011;62035;52.094;5.112;2023-04-21T02:00:54;32.63;;;17.30;;
62030;SDS011;62035;52.094;5.112;2023-04-21T02:03:22;32.92;;;17.05;;
62030;SDS011;62035;52.094;5.112;2023-04-21T02:05:50;32.58;;;18.35;;
62030;SDS011;62035;52.094;5.112;2023-04-21T02:08:17;33.17;;;17.90;;
62030;SDS011;62035;52.094;5.112;2023-04-21T02:10:45;31.17;;;17.85;;
62030;SDS011;62035;52.094;5.112;2023-04-21T02:13:12;32.58;;;18.15;;
62030;SDS011;62035;52.094;5.112;2023-04-21T02:15:41;31.67;;;17.70;;
62030;SDS011;62035;52.094;5.112;2023-04-21T02:18:09;36.88;;;19.10;;
62030;SDS011;62035;52.094;5.112;2023-04-21T02:20:38;33.85;;;17.77;;
62030;SDS011;62035;52.094;5.112;2023-04-21T02:23:05;33.15;;;18.00;;
62030;SDS011;62035;52.094;5.112;2023-04-21T02:25:33;34.97;;;18.83;;
62030;SDS011;62035;52.094;5.112;2023-04-21T02:28:00;35.22;;;18.40;;
62030;SDS011;62035;52.094;5.112;2023-04-21T02:30:28;40.53;;;19.58;;
62030;SDS011;62035;52.094;5.112;2023-04-21T02:32:57;38.03;;;20.05;;
62030;SDS011;62035;52.094;5.112;2023-04-21T02:35:24;40.28;;;19.65;;
62030;SDS011;62035;52.094;5.112;2023-04-21T02:37:52;38.83;;;19.27;;
62030;SDS011;62035;52.094;5.112;2023-04-21T02:40:20;39.20;;;19.92;;
62030;SDS011;62035;52.094;5.112;2023-04-21T02:42:47;35.15;;;19.35;;
62030;SDS011;62035;52.094;5.112;2023-04-21T02:45:15;39.75;;;19.08;;
62030;SDS011;62035;52.094;5.112;2023-04-21T02:47:42;40.40;;;21.30;;
62030;SDS011;62035;52.094;5.112;2023-04-21T02:50:13;41.08;;;18.95;;
62030;SDS011;62035;52.094;5.112;2023-04-21T02:52:41;38.45;;;20.90;;
62030;SDS011;62035;52.094;5.112;2023-04-21T02:55:08;38.53;;;19.90;;
62030;SDS011;62035;52.094;5.112;2023-04-21T02:57:36;43.72;;;22.55;;
62030;SDS011;62035;52.094;5.112;2023-04-21T03:00:04;39.78;;;19.58;;
62030;SDS011;62035;52.094;5.112;2023-04-21T03:02:36;40.40;;;19.73;;
62030;SDS011;62035;52.094;5.112;2023-04-21T03:05:04;38.33;;;19.88;;
62030;SDS011;62035;52.094;5.112;2023-04-21T03:07:33;42.55;;;19.85;;
62030;SDS011;62035;52.094;5.112;2023-04-21T03:10:01;34.08;;;19.33;;
62030;SDS011;62035;52.094;5.112;2023-04-21T03:12:28;42.15;;;21.55;;
62030;SDS011;62035;52.094;5.112;2023-04-21T03:14:56;43.40;;;21.25;;
62030;SDS011;62035;52.094;5.112;2023-04-21T03:17:24;44.17;;;21.65;;
62030;SDS011;62035;52.094;5.112;2023-04-21T03:19:51;41.28;;;20.58;;
62030;SDS011;62035;52.094;5.112;2023-04-21T03:22:19;42.63;;;21.88;;
62030;SDS011;62035;52.094;5.112;2023-04-21T03:24:48;42.53;;;20.65;;
62030;SDS011;62035;52.094;5.112;2023-04-21T03:27:15;42.22;;;20.92;;
62030;SDS011;62035;52.094;5.112;2023-04-21T03:29:43;43.92;;;21.30;;
62030;SDS011;62035;52.094;5.112;2023-04-21T03:32:10;42.95;;;21.20;;
62030;SDS011;62035;52.094;5.112;2023-04-21T03:34:38;42.67;;;20.92;;
62030;SDS011;62035;52.094;5.112;2023-04-21T03:37:06;40.90;;;19.92;;
62030;SDS011;62035;52.094;5.112;2023-04-21T03:39:33;43.22;;;20.23;;
62030;SDS011;62035;52.094;5.112;2023-04-21T03:42:02;46.90;;;23.33;;
62030;SDS011;62035;52.094;5.112;2023-04-21T03:44:30;39.05;;;20.98;;
62030;SDS011;62035;52.094;5.112;2023-04-21T03:46:58;44.88;;;21.40;;
62030;SDS011;62035;52.094;5.112;2023-04-21T03:49:28;42.67;;;21.35;;
62030;SDS011;62035;52.094;5.112;2023-04-21T03:51:55;40.75;;;20.52;;
62030;SDS011;62035;52.094;5.112;2023-04-21T03:54:23;41.20;;;20.23;;
62030;SDS011;62035;52.094;5.112;2023-04-21T03:56:50;36.63;;;19.98;;
62030;SDS011;62035;52.094;5.112;2023-04-21T03:59:20;39.97;;;20.15;;
62030;SDS011;62035;52.094;5.112;2023-04-21T04:01:48;38.00;;;20.70;;
62030;SDS011;62035;52.094;5.112;2023-04-21T04:04:15;41.13;;;21.55;;
62030;SDS011;62035;52.094;5.112;2023-04-21T04:06:43;41.47;;;21.27;;
62030;SDS011;62035;52.094;5.112;2023-04-21T04:09:10;39.60;;;21.35;;
62030;SDS011;62035;52.094;5.112;2023-04-21T04:11:38;37.78;;;20.33;;
62030;SDS011;62035;52.094;5.112;2023-04-21T04:14:05;34.90;;;19.75;;
62030;SDS011;62035;52.094;5.112;2023-04-21T04:16:34;41.85;;;20.83;;
62030;SDS011;62035;52.094;5.112;2023-04-21T04:19:02;37.75;;;19.52;;
62030;SDS011;62035;52.094;5.112;2023-04-21T04:21:29;37.28;;;19.65;;
62030;SDS011;62035;52.094;5.112;2023-04-21T04:23:57;36.47;;;19.80;;
62030;SDS011;62035;52.094;5.112;2023-04-21T04:26:25;33.17;;;18.33;;
62030;SDS011;62035;52.094;5.112;2023-04-21T04:28:53;33.17;;;19.38;;
62030;SDS011;62035;52.094;5.112;2023-04-21T04:31:21;31.27;;;19.48;;
62030;SDS011;62035;52.094;5.112;2023-04-21T04:33:51;34.08;;;18.85;;
62030;SDS011;62035;52.094;5.112;2023-04-21T04:36:19;30.48;;;18.45;;
62030;SDS011;62035;52.094;5.112;2023-04-21T04:38:46;34.83;;;19.02;;
62030;SDS011;62035;52.094;5.112;2023-04-21T04:41:14;33.15;;;18.48;;
62030;SDS011;62035;52.094;5.112;2023-04-21T04:43:42;32.67;;;19.08;;
62030;SDS011;62035;52.094;5.112;2023-04-21T04:46:09;30.77;;;18.90;;
62030;SDS011;62035;52.094;5.112;2023-04-21T04:48:37;31.25;;;19.13;;
62030;SDS011;62035;52.094;5.112;2023-04-21T04:51:07;32.80;;;19.75;;
62030;SDS011;62035;52.094;5.112;2023-04-21T04:53:34;32.67;;;19.52;;
62030;SDS011;62035;52.094;5.112;2023-04-21T04:56:02;32.10;;;19.00;;
62030;SDS011;62035;52.094;5.112;2023-04-21T04:58:30;36.75;;;20.05;;
62030;SDS011;62035;52.094;5.112;2023-04-21T05:00:57;37.42;;;20.85;;
62030;SDS011;62035;52.094;5.112;2023-04-21T05:03:25;34.42;;;19.83;;
62030;SDS011;62035;52.094;5.112;2023-04-21T05:05:53;34.38;;;20.52;;
62030;SDS011;62035;52.094;5.112;2023-04-21T05:08:23;36.72;;;20.25;;
62030;SDS011;62035;52.094;5.112;2023-04-21T05:10:51;31.15;;;20.08;;
62030;SDS011;62035;52.094;5.112;2023-04-21T05:13:18;36.97;;;21.38;;
62030;SDS011;62035;52.094;5.112;2023-04-21T05:15:46;37.45;;;20.40;;
62030;SDS011;62035;52.094;5.112;2023-04-21T05:18:14;35.15;;;20.55;;
62030;SDS011;62035;52.094;5.112;2023-04-21T05:20:41;41.42;;;22.10;;
62030;SDS011;62035;52.094;5.112;2023-04-21T05:23:09;40.80;;;21.70;;
62030;SDS011;62035;52.094;5.112;2023-04-21T05:25:38;39.55;;;22.05;;
62030;SDS011;62035;52.094;5.112;2023-04-21T05:28:05;38.13;;;21.77;;
62030;SDS011;62035;52.094;5.112;2023-04-21T05:30:33;39.00;;;23.20;;
62030;SDS011;62035;52.094;5.112;2023-04-21T05:33:00;40.15;;;21.88;;
62030;SDS011;62035;52.094;5.112;2023-04-21T05:35:29;40.58;;;22.40;;
62030;SDS011;62035;52.094;5.112;2023-04-21T05:37:56;39.08;;;22.60;;
62030;SDS011;62035;52.094;5.112;2023-04-21T05:40:24;36.15;;;23.42;;
62030;SDS011;62035;52.094;5.112;2023-04-21T05:42:53;38.78;;;21.67;;
62030;SDS011;62035;52.094;5.112;2023-04-21T05:45:20;39.33;;;21.73;;
62030;SDS011;62035;52.094;5.112;2023-04-21T05:47:48;36.72;;;22.58;;
62030;SDS011;62035;52.094;5.112;2023-04-21T05:50:16;33.60;;;21.38;;
62030;SDS011;62035;52.094;5.112;2023-04-21T05:52:43;39.40;;;23.23;;
62030;SDS011;62035;52.094;5.112;2023-04-21T05:55:11;39.13;;;22.15;;
62030;SDS011;62035;52.094;5.112;2023-04-21T05:57:38;37.05;;;21.92;;
62030;SDS011;62035;52.094;5.112;2023-04-21T06:00:08;40.40;;;23.42;;
62030;SDS011;62035;52.094;5.112;2023-04-21T06:02:37;37.65;;;22.58;;
62030;SDS011;62035;52.094;5.112;2023-04-21T06:05:05;38.22;;;22.73;;
62030;SDS011;62035;52.094;5.112;2023-04-21T06:07:32;42.55;;;22.95;;
62030;SDS011;62035;52.094;5.112;2023-04-21T06:10:03;37.22;;;21.35;;
62030;SDS011;62035;52.094;5.112;2023-04-21T06:12:31;40.88;;;23.50;;
62030;SDS011;62035;52.094;5.112;2023-04-21T06:14:59;42.67;;;23.92;;
62030;SDS011;62035;52.094;5.112;2023-04-21T06:17:28;36.08;;;22.10;;
62030;SDS011;62035;52.094;5.112;2023-04-21T06:19:55;39.63;;;23.48;;
62030;SDS011;62035;52.094;5.112;2023-04-21T06:22:24;38.17;;;23.58;;
62030;SDS011;62035;52.094;5.112;2023-04-21T06:24:53;36.00;;;22.17;;
62030;SDS011;62035;52.094;5.112;2023-04-21T06:27:20;38.35;;;23.08;;
62030;SDS011;62035;52.094;5.112;2023-04-21T06:29:48;40.25;;;22.77;;
62030;SDS011;62035;52.094;5.112;2023-04-21T06:32:21;40.05;;;22.85;;
62030;SDS011;62035;52.094;5.112;2023-04-21T06:34:50;37.35;;;22.67;;
62030;SDS011;62035;52.094;5.112;2023-04-21T06:37:17;37.15;;;22.30;;
62030;SDS011;62035;52.094;5.112;2023-04-21T06:39:45;35.72;;;22.85;;
62030;SDS011;62035;52.094;5.112;2023-04-21T06:42:12;36.45;;;22.67;;
62030;SDS011;62035;52.094;5.112;2023-04-21T06:44:40;37.30;;;23.17;;
62030;SDS011;62035;52.094;5.112;2023-04-21T06:47:08;36.90;;;22.95;;
62030;SDS011;62035;52.094;5.112;2023-04-21T06:49:35;37.45;;;22.90;;
62030;SDS011;62035;52.094;5.112;2023-04-21T06:52:04;39.47;;;24.10;;
62030;SDS011;62035;52.094;5.112;2023-04-21T06:54:32;35.92;;;23.25;;
62030;SDS011;62035;52.094;5.112;2023-04-21T06:57:00;37.05;;;22.63;;
62030;SDS011;62035;52.094;5.112;2023-04-21T06:59:27;39.38;;;23.23;;
62030;SDS011;62035;52.094;5.112;2023-04-21T07:01:55;31.98;;;21.95;;
62030;SDS011;62035;52.094;5.112;2023-04-21T07:04:22;33.47;;;22.30;;
62030;SDS011;62035;52.094;5.112;2023-04-21T07:09:23;30.75;;;20.83;;
62030;SDS011;62035;52.094;5.112;2023-04-21T07:11:53;33.45;;;21.65;;
62030;SDS011;62035;52.094;5.112;2023-04-21T07:14:20;38.25;;;21.85;;
62030;SDS011;62035;52.094;5.112;2023-04-21T07:16:48;32.28;;;20.90;;
62030;SDS011;62035;52.094;5.112;2023-04-21T07:19:15;34.97;;;23.05;;
62030;SDS011;62035;52.094;5.112;2023-04-21T07:21:43;31.17;;;22.17;;
62030;SDS011;62035;52.094;5.112;2023-04-21T07:24:10;34.30;;;21.20;;
62030;SDS011;62035;52.094;5.112;2023-04-21T07:26:39;34.42;;;20.60;;
62030;SDS011;62035;52.094;5.112;2023-04-21T07:29:07;33.90;;;22.25;;
62030;SDS011;62035;52.094;5.112;2023-04-21T07:31:34;32.38;;;20.80;;
62030;SDS011;62035;52.094;5.112;2023-04-21T07:34:02;36.20;;;22.00;;
62030;SDS011;62035;52.094;5.112;2023-04-21T07:36:29;29.70;;;19.95;;
62030;SDS011;62035;52.094;5.112;2023-04-21T07:38:57;29.10;;;20.52;;
62030;SDS011;62035;52.094;5.112;2023-04-21T07:41:25;29.55;;;20.63;;
62030;SDS011;62035;52.094;5.112;2023-04-21T07:43:55;34.38;;;21.52;;
62030;SDS011;62035;52.094;5.112;2023-04-21T07:46:22;30.75;;;20.90;;
62030;SDS011;62035;52.094;5.112;2023-04-21T07:51:22;30.65;;;20.75;;
62030;SDS011;62035;52.094;5.112;2023-04-21T07:53:50;33.10;;;20.83;;
62030;SDS011;62035;52.094;5.112;2023-04-21T07:56:18;32.20;;;20.08;;
62030;SDS011;62035;52.094;5.112;2023-04-21T07:58:45;30.40;;;19.67;;
62030;SDS011;62035;52.094;5.112;2023-04-21T08:01:14;26.00;;;18.77;;
62030;SDS011;62035;52.094;5.112;2023-04-21T08:03:42;30.58;;;19.70;;
62030;SDS011;62035;52.094;5.112;2023-04-21T08:06:10;28.90;;;19.65;;
62030;SDS011;62035;52.094;5.112;2023-04-21T08:08:37;32.53;;;21.42;;
62030;SDS011;62035;52.094;5.112;2023-04-21T08:11:05;32.22;;;19.77;;
62030;SDS011;62035;52.094;5.112;2023-04-21T08:13:33;28.67;;;19.70;;
62030;SDS011;62035;52.094;5.112;2023-04-21T08:16:00;27.77;;;19.90;;
62030;SDS011;62035;52.094;5.112;2023-04-21T08:18:29;28.17;;;18.92;;
62030;SDS011;62035;52.094;5.112;2023-04-21T08:20:57;26.92;;;19.33;;
62030;SDS011;62035;52.094;5.112;2023-04-21T08:23:24;27.50;;;19.13;;
62030;SDS011;62035;52.094;5.112;2023-04-21T08:25:54;26.27;;;18.73;;
62030;SDS011;62035;52.094;5.112;2023-04-21T08:28:22;26.20;;;18.90;;
62030;SDS011;62035;52.094;5.112;2023-04-21T08:30:50;27.70;;;19.15;;
62030;SDS011;62035;52.094;5.112;2023-04-21T08:33:17;28.17;;;18.50;;
62030;SDS011;62035;52.094;5.112;2023-04-21T08:35:46;27.35;;;18.98;;
62030;SDS011;62035;52.094;5.112;2023-04-21T08:38:14;29.17;;;20.45;;
62030;SDS011;62035;52.094;5.112;2023-04-21T08:40:41;25.77;;;19.15;;
62030;SDS011;62035;52.094;5.112;2023-04-21T08:43:09;25.75;;;18.55;;
62030;SDS011;62035;52.094;5.112;2023-04-21T08:45:37;30.38;;;19.40;;
62030;SDS011;62035;52.094;5.112;2023-04-21T08:48:07;27.58;;;19.58;;
62030;SDS011;62035;52.094;5.112;2023-04-21T08:50:41;28.75;;;18.70;;
62030;SDS011;62035;52.094;5.112;2023-04-21T08:53:12;25.10;;;17.98;;
62030;SDS011;62035;52.094;5.112;2023-04-21T08:55:41;27.98;;;19.67;;
62030;SDS011;62035;52.094;5.112;2023-04-21T08:58:09;28.73;;;19.40;;
62030;SDS011;62035;52.094;5.112;2023-04-21T09:00:38;32.83;;;20.17;;
62030;SDS011;62035;52.094;5.112;2023-04-21T09:03:06;26.52;;;18.63;;
62030;SDS011;62035;52.094;5.112;2023-04-21T09:05:35;27.70;;;18.80;;
62030;SDS011;62035;52.094;5.112;2023-04-21T09:08:06;26.55;;;18.08;;
62030;SDS011;62035;52.094;5.112;2023-04-21T09:10:44;28.15;;;18.10;;
62030;SDS011;62035;52.094;5.112;2023-04-21T09:13:14;25.05;;;16.83;;
62030;SDS011;62035;52.094;5.112;2023-04-21T09:15:44;21.02;;;15.60;;
62030;SDS011;62035;52.094;5.112;2023-04-21T09:20:45;24.83;;;15.68;;
62030;SDS011;62035;52.094;5.112;2023-04-21T09:23:16;21.02;;;15.13;;
62030;SDS011;62035;52.094;5.112;2023-04-21T09:25:45;22.25;;;14.60;;
62030;SDS011;62035;52.094;5.112;2023-04-21T09:28:13;20.30;;;15.05;;
62030;SDS011;62035;52.094;5.112;2023-04-21T09:30:41;24.55;;;15.00;;
62030;SDS011;62035;52.094;5.112;2023-04-21T09:33:14;23.92;;;15.57;;
62030;SDS011;62035;52.094;5.112;2023-04-21T09:35:42;20.90;;;14.77;;
62030;SDS011;62035;52.094;5.112;2023-04-21T09:38:11;23.42;;;15.13;;
62030;SDS011;62035;52.094;5.112;2023-04-21T09:40:39;21.27;;;13.65;;
62030;SDS011;62035;52.094;5.112;2023-04-21T09:43:08;24.42;;;15.13;;
62030;SDS011;62035;52.094;5.112;2023-04-21T09:45:36;20.98;;;14.60;;
62030;SDS011;62035;52.094;5.112;2023-04-21T09:48:05;20.38;;;14.10;;
62030;SDS011;62035;52.094;5.112;2023-04-21T09:50:38;18.70;;;14.20;;
62030;SDS011;62035;52.094;5.112;2023-04-21T09:53:07;17.95;;;12.95;;
62030;SDS011;62035;52.094;5.112;2023-04-21T09:55:42;21.98;;;13.52;;
62030;SDS011;62035;52.094;5.112;2023-04-21T09:58:17;22.02;;;14.20;;
62030;SDS011;62035;52.094;5.112;2023-04-21T10:00:49;20.65;;;14.35;;
62030;SDS011;62035;52.094;5.112;2023-04-21T10:03:22;21.48;;;14.35;;
62030;SDS011;62035;52.094;5.112;2023-04-21T10:05:54;17.83;;;12.77;;
62030;SDS011;62035;52.094;5.112;2023-04-21T10:08:22;19.15;;;13.00;;
62030;SDS011;62035;52.094;5.112;2023-04-21T10:10:49;17.10;;;13.02;;
62030;SDS011;62035;52.094;5.112;2023-04-21T10:13:20;18.30;;;12.90;;
62030;SDS011;62035;52.094;5.112;2023-04-21T10:15:48;20.08;;;13.00;;
62030;SDS011;62035;52.094;5.112;2023-04-21T10:18:28;21.38;;;12.90;;
62030;SDS011;62035;52.094;5.112;2023-04-21T10:20:56;21.45;;;13.23;;
62030;SDS011;62035;52.094;5.112;2023-04-21T10:23:29;18.00;;;12.77;;
62030;SDS011;62035;52.094;5.112;2023-04-21T10:26:03;21.05;;;12.85;;
62030;SDS011;62035;52.094;5.112;2023-04-21T10:28:40;19.83;;;14.15;;
62030;SDS011;62035;52.094;5.112;2023-04-21T10:39:51;20.67;;;13.75;;
62030;SDS011;62035;52.094;5.112;2023-04-21T10:42:23;20.35;;;13.85;;
62030;SDS011;62035;52.094;5.112;2023-04-21T10:45:00;22.92;;;14.15;;
62030;SDS011;62035;52.094;5.112;2023-04-21T10:47:38;19.83;;;13.02;;
62030;SDS011;62035;52.094;5.112;2023-04-21T10:50:14;19.30;;;12.60;;
62030;SDS011;62035;52.094;5.112;2023-04-21T10:52:52;19.30;;;13.27;;
62030;SDS011;62035;52.094;5.112;2023-04-21T10:55:27;18.63;;;12.68;;
62030;SDS011;62035;52.094;5.112;2023-04-21T10:57:56;18.05;;;13.05;;
62030;SDS011;62035;52.094;5.112;2023-04-21T11:00:28;18.55;;;13.07;;
62030;SDS011;62035;52.094;5.112;2023-04-21T11:02:57;17.48;;;12.52;;
62030;SDS011;62035;52.094;5.112;2023-04-21T11:05:28;19.30;;;13.20;;
62030;SDS011;62035;52.094;5.112;2023-04-21T11:08:04;20.65;;;13.02;;
62030;SDS011;62035;52.094;5.112;2023-04-21T11:10:40;20.60;;;13.52;;
62030;SDS011;62035;52.094;5.112;2023-04-21T11:13:10;19.85;;;13.02;;
62030;SDS011;62035;52.094;5.112;2023-04-21T11:15:39;19.05;;;12.98;;
62030;SDS011;62035;52.094;5.112;2023-04-21T11:18:07;23.00;;;12.98;;
62030;SDS011;62035;52.094;5.112;2023-04-21T11:20:38;18.23;;;12.70;;
62030;SDS011;62035;52.094;5.112;2023-04-21T11:23:15;22.02;;;12.63;;
62030;SDS011;62035;52.094;5.112;2023-04-21T11:25:44;20.15;;;13.13;;
62030;SDS011;62035;52.094;5.112;2023-04-21T11:28:12;16.45;;;12.40;;
62030;SDS011;62035;52.094;5.112;2023-04-21T11:30:48;18.17;;;13.10;;
62030;SDS011;62035;52.094;5.112;2023-04-21T11:33:16;18.73;;;12.93;;
62030;SDS011;62035;52.094;5.112;2023-04-21T11:35:43;19.27;;;13.57;;
62030;SDS011;62035;52.094;5.112;2023-04-21T11:38:11;19.10;;;13.48;;
62030;SDS011;62035;52.094;5.112;2023-04-21T11:40:44;21.55;;;13.25;;
62030;SDS011;62035;52.094;5.112;2023-04-21T11:43:13;19.48;;;13.48;;
62030;SDS011;62035;52.094;5.112;2023-04-21T11:45:41;18.35;;;13.75;;
62030;SDS011;62035;52.094;5.112;2023-04-21T11:48:13;22.42;;;14.77;;
62030;SDS011;62035;52.094;5.112;2023-04-21T11:50:45;18.15;;;13.18;;
62030;SDS011;62035;52.094;5.112;2023-04-21T11:53:14;19.33;;;14.18;;
62030;SDS011;62035;52.094;5.112;2023-04-21T11:55:42;16.38;;;13.18;;
62030;SDS011;62035;52.094;5.112;2023-04-21T11:58:12;16.55;;;12.02;;
62030;SDS011;62035;52.094;5.112;2023-04-21T12:00:42;17.58;;;12.38;;
62030;SDS011;62035;52.094;5.112;2023-04-21T12:03:12;25.30;;;12.20;;
62030;SDS011;62035;52.094;5.112;2023-04-21T12:05:41;17.15;;;11.70;;
62030;SDS011;62035;52.094;5.112;2023-04-21T12:08:12;16.75;;;11.80;;
62030;SDS011;62035;52.094;5.112;2023-04-21T12:10:43;17.52;;;11.80;;
62030;SDS011;62035;52.094;5.112;2023-04-21T12:13:12;19.80;;;11.13;;
62030;SDS011;62035;52.094;5.112;2023-04-21T12:15:44;16.33;;;11.80;;
62030;SDS011;62035;52.094;5.112;2023-04-21T12:18:14;17.50;;;11.55;;
62030;SDS011;62035;52.094;5.112;2023-04-21T12:20:47;19.40;;;12.55;;
62030;SDS011;62035;52.094;5.112;2023-04-21T12:23:17;20.40;;;12.90;;
62030;SDS011;62035;52.094;5.112;2023-04-21T12:25:45;21.85;;;13.27;;
62030;SDS011;62035;52.094;5.112;2023-04-21T12:28:14;22.98;;;14.23;;
62030;SDS011;62035;52.094;5.112;2023-04-21T12:30:43;21.52;;;15.27;;
62030;SDS011;62035;52.094;5.112;2023-04-21T12:33:10;28.17;;;15.93;;
62030;SDS011;62035;52.094;5.112;2023-04-21T12:35:40;26.80;;;16.02;;
62030;SDS011;62035;52.094;5.112;2023-04-21T12:38:07;34.17;;;19.73;;
62030;SDS011;62035;52.094;5.112;2023-04-21T12:40:35;23.88;;;14.50;;
62030;SDS011;62035;52.094;5.112;2023-04-21T12:43:03;21.27;;;13.85;;
62030;SDS011;62035;52.094;5.112;2023-04-21T12:45:30;19.13;;;13.00;;
62030;SDS011;62035;52.094;5.112;2023-04-21T12:47:58;27.55;;;17.17;;
62030;SDS011;62035;52.094;5.112;2023-04-21T12:50:26;26.48;;;15.93;;
62030;SDS011;62035;52.094;5.112;2023-04-21T12:52:55;24.10;;;14.70;;
62030;SDS011;62035;52.094;5.112;2023-04-21T12:55:22;21.95;;;14.40;;
62030;SDS011;62035;52.094;5.112;2023-04-21T12:57:50;19.80;;;13.35;;
62030;SDS011;62035;52.094;5.112;2023-04-21T13:00:18;20.42;;;13.45;;
62030;SDS011;62035;52.094;5.112;2023-04-21T13:02:47;17.40;;;12.38;;
62030;SDS011;62035;52.094;5.112;2023-04-21T13:05:15;16.65;;;11.75;;
62030;SDS011;62035;52.094;5.112;2023-04-21T13:07:43;20.23;;;13.50;;
62030;SDS011;62035;52.094;5.112;2023-04-21T13:10:12;19.02;;;12.02;;
62030;SDS011;62035;52.094;5.112;2023-04-21T13:12:40;20.45;;;12.70;;
62030;SDS011;62035;52.094;5.112;2023-04-21T13:15:08;23.25;;;13.30;;
62030;SDS011;62035;52.094;5.112;2023-04-21T13:17:37;18.98;;;12.75;;
62030;SDS011;62035;52.094;5.112;2023-04-21T13:20:05;18.80;;;12.68;;
62030;SDS011;62035;52.094;5.112;2023-04-21T13:22:33;20.30;;;13.18;;
62030;SDS011;62035;52.094;5.112;2023-04-21T13:25:01;18.52;;;12.05;;
62030;SDS011;62035;52.094;5.112;2023-04-21T13:27:30;20.25;;;13.48;;
62030;SDS011;62035;52.094;5.112;2023-04-21T13:29:59;22.80;;;14.25;;
62030;SDS011;62035;52.094;5.112;2023-04-21T13:32:26;25.48;;;15.02;;
62030;SDS011;62035;52.094;5.112;2023-04-21T13:34:54;20.67;;;13.50;;
62030;SDS011;62035;52.094;5.112;2023-04-21T13:37:22;26.20;;;16.58;;
62030;SDS011;62035;52.094;5.112;2023-04-21T13:39:50;24.45;;;14.10;;
62030;SDS011;62035;52.094;5.112;2023-04-21T13:42:18;23.67;;;15.00;;
62030;SDS011;62035;52.094;5.112;2023-04-21T13:44:47;23.95;;;14.35;;
62030;SDS011;62035;52.094;5.112;2023-04-21T13:47:14;23.77;;;14.18;;
62030;SDS011;62035;52.094;5.112;2023-04-21T13:49:42;22.20;;;14.18;;
62030;SDS011;62035;52.094;5.112;2023-04-21T13:52:10;24.80;;;14.98;;
62030;SDS011;62035;52.094;5.112;2023-04-21T13:54:38;24.52;;;15.38;;
62030;SDS011;62035;52.094;5.112;2023-04-21T13:57:05;24.50;;;14.32;;
62030;SDS011;62035;52.094;5.112;2023-04-21T13:59:33;22.67;;;14.18;;
62030;SDS011;62035;52.094;5.112;2023-04-21T14:02:02;22.23;;;15.05;;
62030;SDS011;62035;52.094;5.112;2023-04-21T14:04:30;21.27;;;14.27;;
62030;SDS011;62035;52.094;5.112;2023-04-21T14:06:57;24.63;;;14.50;;
62030;SDS011;62035;52.094;5.112;2023-04-21T14:09:26;26.48;;;14.93;;
62030;SDS011;62035;52.094;5.112;2023-04-21T14:11:54;28.35;;;15.57;;
62030;SDS011;62035;52.094;5.112;2023-04-21T14:14:22;22.45;;;14.25;;
62030;SDS011;62035;52.094;5.112;2023-04-21T14:16:49;27.25;;;15.48;;
62030;SDS011;62035;52.094;5.112;2023-04-21T14:19:19;25.85;;;16.02;;
62030;SDS011;62035;52.094;5.112;2023-04-21T14:21:46;21.58;;;15.00;;
62030;SDS011;62035;52.094;5.112;2023-04-21T14:24:14;25.05;;;15.60;;
62030;SDS011;62035;52.094;5.112;2023-04-21T14:26:41;22.23;;;14.23;;
62030;SDS011;62035;52.094;5.112;2023-04-21T14:29:09;21.30;;;13.38;;
62030;SDS011;62035;52.094;5.112;2023-04-21T14:31:37;22.92;;;14.93;;
62030;SDS011;62035;52.094;5.112;2023-04-21T14:34:04;22.40;;;14.50;;
62030;SDS011;62035;52.094;5.112;2023-04-21T14:36:33;23.65;;;14.20;;
62030;SDS011;62035;52.094;5.112;2023-04-21T14:39:02;20.83;;;13.57;;
62030;SDS011;62035;52.094;5.112;2023-04-21T14:41:30;20.92;;;13.05;;
62030;SDS011;62035;52.094;5.112;2023-04-21T14:43:58;20.85;;;14.00;;
62030;SDS011;62035;52.094;5.112;2023-04-21T14:46:25;20.80;;;13.48;;